This is the latest recevied weather packets stored in our database for station/object SM0UQT-10. If no packets are shown the sender has not sent any weather packets the latest 10 day(s).
| Time | Temp. | Humidity | Pressure | Rain* | Wind** | Luminosity | Snow |
|---|---|---|---|---|---|---|---|
| 1788301424 | 13.33° C | 62% | 998.2 hPa | - | - | - | - |
| 1788300524 | 13.33° C | 62% | 998.2 hPa | - | - | - | - |
| 1788299624 | 13.33° C | 62% | 998.2 hPa | - | - | - | - |
| 1788298724 | 13.33° C | 62% | 998.2 hPa | - | - | - | - |
| 1788297824 | 13.33° C | 62% | 998.1 hPa | - | - | - | - |
| 1788296924 | 13.33° C | 62% | 998.2 hPa | - | - | - | - |
| 1788296024 | 13.33° C | 62% | 998.2 hPa | - | - | - | - |
| 1788295124 | 13.33° C | 62% | 998.2 hPa | - | - | - | - |
| 1788294224 | 13.33° C | 62% | 998.4 hPa | - | - | - | - |
| 1788293324 | 13.89° C | 62% | 998.3 hPa | - | - | - | - |
| 1788292424 | 13.89° C | 61% | 998.3 hPa | - | - | - | - |
| 1788291540 | 13.89° C | 62% | 998.3 hPa | - | - | - | - |
| 1788290624 | 13.89° C | 62% | 998.3 hPa | - | - | - | - |
| 1788289723 | 14.44° C | 62% | 998.3 hPa | - | - | - | - |
| 1788288823 | 14.44° C | 62% | 998.2 hPa | - | - | - | - |
| 1788287923 | 14.44° C | 62% | 998.1 hPa | - | - | - | - |
| 1788287023 | 15° C | 62% | 998 hPa | - | - | - | - |
| 1788286123 | 15.56° C | 62% | 997.9 hPa | - | - | - | - |
| 1788285223 | 15.56° C | 62% | 998 hPa | - | - | - | - |
| 1788284323 | 16.67° C | 61% | 997.9 hPa | - | - | - | - |
| 1788283423 | 17.22° C | 62% | 997.7 hPa | - | - | - | - |
| 1788282554 | 17.78° C | 62% | 997.8 hPa | - | - | - | - |
| 1788282523 | 17.78° C | 62% | 997.8 hPa | - | - | - | - |
| 1788281623 | 17.78° C | 62% | 997.8 hPa | - | - | - | - |
| 1788280733 | 18.89° C | 62% | 997.6 hPa | - | - | - | - |
* Rain since midnight (hover to see other rain measurements)
** Current wind speed in m/s (hover to see current wind gust speed)